sensor_id;sensor_type;location;lat;lon;timestamp;pressure;altitude;pressure_sealevel;temperature;humidity
35878;BME280;21982;49.804;24.072;2023-05-23T00:00:56;97149.66;;;15.65;38.26
35878;BME280;21982;49.804;24.072;2023-05-23T00:03:23;97133.34;;;15.55;38.33
35878;BME280;21982;49.804;24.072;2023-05-23T00:05:48;97159.88;;;15.68;38.41
35878;BME280;21982;49.804;24.072;2023-05-23T00:08:14;97103.22;;;15.29;38.50
35878;BME280;21982;49.804;24.072;2023-05-23T00:10:40;97161.38;;;15.64;38.63
35878;BME280;21982;49.804;24.072;2023-05-23T00:13:05;97158.09;;;15.62;38.47
35878;BME280;21982;49.804;24.072;2023-05-23T00:15:34;97133.19;;;15.50;38.41
35878;BME280;21982;49.804;24.072;2023-05-23T00:18:01;97148.13;;;15.57;38.44
35878;BME280;21982;49.804;24.072;2023-05-23T00:20:27;97075.97;;;15.09;38.59
35878;BME280;21982;49.804;24.072;2023-05-23T00:22:53;97148.31;;;15.56;38.52
35878;BME280;21982;49.804;24.072;2023-05-23T00:25:25;97119.53;;;15.39;38.70
35878;BME280;21982;49.804;24.072;2023-05-23T00:27:58;97123.25;;;15.38;38.76
35878;BME280;21982;49.804;24.072;2023-05-23T00:30:23;97003.97;;;14.72;38.97
35878;BME280;21982;49.804;24.072;2023-05-23T00:32:49;97139.72;;;15.54;38.62
35878;BME280;21982;49.804;24.072;2023-05-23T00:35:14;97066.94;;;15.10;38.54
35878;BME280;21982;49.804;24.072;2023-05-23T00:37:40;97035.25;;;14.84;38.58
35878;BME280;21982;49.804;24.072;2023-05-23T00:40:06;97118.59;;;15.52;38.65
35878;BME280;21982;49.804;24.072;2023-05-23T00:42:32;97129.56;;;15.62;38.66
35878;BME280;21982;49.804;24.072;2023-05-23T00:44:58;97127.94;;;15.61;38.61
35878;BME280;21982;49.804;24.072;2023-05-23T00:47:23;97047.47;;;15.09;38.13
35878;BME280;21982;49.804;24.072;2023-05-23T00:49:49;97043.38;;;15.07;38.48
35878;BME280;21982;49.804;24.072;2023-05-23T00:52:15;97016.13;;;14.87;38.84
35878;BME280;21982;49.804;24.072;2023-05-23T00:54:41;97129.03;;;15.54;38.77
35878;BME280;21982;49.804;24.072;2023-05-23T00:57:07;97128.44;;;15.52;38.93
35878;BME280;21982;49.804;24.072;2023-05-23T00:59:32;97135.03;;;15.49;38.88
35878;BME280;21982;49.804;24.072;2023-05-23T01:01:59;97134.22;;;15.49;39.09
35878;BME280;21982;49.804;24.072;2023-05-23T01:04:25;97040.13;;;14.87;38.77
35878;BME280;21982;49.804;24.072;2023-05-23T01:06:55;97081.69;;;15.13;38.97
35878;BME280;21982;49.804;24.072;2023-05-23T01:09:22;97131.25;;;15.38;39.03
35878;BME280;21982;49.804;24.072;2023-05-23T01:17:58;97118.03;;;15.25;39.15
35878;BME280;21982;49.804;24.072;2023-05-23T01:20:42;97124.94;;;15.33;39.11
35878;BME280;21982;49.804;24.072;2023-05-23T01:28:47;97122.88;;;15.35;39.10
35878;BME280;21982;49.804;24.072;2023-05-23T01:31:15;97112.16;;;15.23;39.51
35878;BME280;21982;49.804;24.072;2023-05-23T01:33:42;97023.13;;;14.63;39.42
35878;BME280;21982;49.804;24.072;2023-05-23T01:36:08;97082.63;;;15.00;39.40
35878;BME280;21982;49.804;24.072;2023-05-23T01:38:37;97063.91;;;14.88;39.64
35878;BME280;21982;49.804;24.072;2023-05-23T01:41:02;97112.88;;;15.12;39.71
35878;BME280;21982;49.804;24.072;2023-05-23T01:43:27;97116.34;;;15.13;39.46
35878;BME280;21982;49.804;24.072;2023-05-23T01:45:54;97118.75;;;15.21;39.30
35878;BME280;21982;49.804;24.072;2023-05-23T01:48:21;97122.66;;;15.18;39.60
35878;BME280;21982;49.804;24.072;2023-05-23T01:50:47;97069.28;;;14.82;39.85
35878;BME280;21982;49.804;24.072;2023-05-23T01:53:15;97093.44;;;15.05;39.88
35878;BME280;21982;49.804;24.072;2023-05-23T01:55:41;97035.19;;;14.65;39.59
35878;BME280;21982;49.804;24.072;2023-05-23T01:58:07;97108.56;;;15.11;39.58
35878;BME280;21982;49.804;24.072;2023-05-23T02:00:33;97101.59;;;15.10;39.57
35878;BME280;21982;49.804;24.072;2023-05-23T02:02:58;97045.00;;;14.71;39.72
35878;BME280;21982;49.804;24.072;2023-05-23T02:05:24;97027.25;;;14.59;39.84
35878;BME280;21982;49.804;24.072;2023-05-23T02:07:50;96880.78;;;13.48;39.84
35878;BME280;21982;49.804;24.072;2023-05-23T02:10:18;97106.19;;;15.03;39.91
35878;BME280;21982;49.804;24.072;2023-05-23T02:12:43;97100.25;;;15.01;40.28
35878;BME280;21982;49.804;24.072;2023-05-23T02:15:09;97102.31;;;14.99;40.15
35878;BME280;21982;49.804;24.072;2023-05-23T02:17:34;97097.44;;;14.96;40.08
35878;BME280;21982;49.804;24.072;2023-05-23T02:20:00;97073.06;;;14.74;39.93
35878;BME280;21982;49.804;24.072;2023-05-23T02:22:25;97069.94;;;14.77;40.40
35878;BME280;21982;49.804;24.072;2023-05-23T02:24:51;97056.09;;;14.68;40.26
35878;BME280;21982;49.804;24.072;2023-05-23T02:27:17;97046.91;;;14.64;40.25
35878;BME280;21982;49.804;24.072;2023-05-23T02:29:43;97060.31;;;14.76;40.11
35878;BME280;21982;49.804;24.072;2023-05-23T02:32:08;97085.56;;;14.92;40.14
35878;BME280;21982;49.804;24.072;2023-05-23T02:34:33;96997.09;;;14.40;40.07
35878;BME280;21982;49.804;24.072;2023-05-23T02:36:59;97079.09;;;14.88;40.14
35878;BME280;21982;49.804;24.072;2023-05-23T02:39:26;97048.53;;;14.65;40.28
35878;BME280;21982;49.804;24.072;2023-05-23T02:41:52;97029.13;;;14.58;40.12
35878;BME280;21982;49.804;24.072;2023-05-23T02:44:17;96963.72;;;14.19;40.38
35878;BME280;21982;49.804;24.072;2023-05-23T02:46:45;97023.66;;;14.53;40.51
35878;BME280;21982;49.804;24.072;2023-05-23T02:49:10;97064.19;;;14.80;40.52
35878;BME280;21982;49.804;24.072;2023-05-23T02:51:36;97074.25;;;14.78;40.72
35878;BME280;21982;49.804;24.072;2023-05-23T02:54:01;97021.69;;;14.42;40.63
35878;BME280;21982;49.804;24.072;2023-05-23T02:56:27;97043.19;;;14.47;40.65
35878;BME280;21982;49.804;24.072;2023-05-23T02:58:52;97033.56;;;14.39;40.67
35878;BME280;21982;49.804;24.072;2023-05-23T03:01:18;97073.09;;;14.67;40.88
35878;BME280;21982;49.804;24.072;2023-05-23T03:03:44;97058.09;;;14.55;41.05
35878;BME280;21982;49.804;24.072;2023-05-23T03:06:09;97007.13;;;14.20;40.72
35878;BME280;21982;49.804;24.072;2023-05-23T03:08:39;97076.81;;;14.66;40.87
35878;BME280;21982;49.804;24.072;2023-05-23T03:11:05;97078.88;;;14.64;41.09
35878;BME280;21982;49.804;24.072;2023-05-23T03:13:31;96989.13;;;14.15;41.18
35878;BME280;21982;49.804;24.072;2023-05-23T03:15:56;97014.81;;;14.28;41.29
35878;BME280;21982;49.804;24.072;2023-05-23T03:18:21;97034.81;;;14.44;40.93
35878;BME280;21982;49.804;24.072;2023-05-23T03:20:47;97031.53;;;14.41;41.27
35878;BME280;21982;49.804;24.072;2023-05-23T03:23:12;97061.84;;;14.65;40.98
35878;BME280;21982;49.804;24.072;2023-05-23T03:25:38;97049.84;;;14.56;41.00
35878;BME280;21982;49.804;24.072;2023-05-23T03:28:03;97012.69;;;14.43;41.05
35878;BME280;21982;49.804;24.072;2023-05-23T03:30:28;97043.19;;;14.65;41.16
35878;BME280;21982;49.804;24.072;2023-05-23T03:32:54;97060.69;;;14.80;41.12
35878;BME280;21982;49.804;24.072;2023-05-23T03:35:26;97057.16;;;14.86;40.75
35878;BME280;21982;49.804;24.072;2023-05-23T03:37:51;97014.25;;;14.51;41.29
35878;BME280;21982;49.804;24.072;2023-05-23T03:40:16;96998.31;;;14.44;41.05
35878;BME280;21982;49.804;24.072;2023-05-23T03:42:43;97057.22;;;14.79;41.19
35878;BME280;21982;49.804;24.072;2023-05-23T03:45:08;97029.13;;;14.58;41.27
35878;BME280;21982;49.804;24.072;2023-05-23T03:47:34;97034.66;;;14.57;41.39
35878;BME280;21982;49.804;24.072;2023-05-23T03:49:59;97063.88;;;14.70;41.60
35878;BME280;21982;49.804;24.072;2023-05-23T03:52:25;97064.09;;;14.68;41.65
35878;BME280;21982;49.804;24.072;2023-05-23T03:54:50;96997.22;;;14.27;41.89
35878;BME280;21982;49.804;24.072;2023-05-23T03:57:16;96992.19;;;14.19;41.53
35878;BME280;21982;49.804;24.072;2023-05-23T03:59:41;97058.00;;;14.61;41.81
35878;BME280;21982;49.804;24.072;2023-05-23T04:02:07;97034.81;;;14.44;41.88
35878;BME280;21982;49.804;24.072;2023-05-23T04:04:32;97036.88;;;14.41;42.06
35878;BME280;21982;49.804;24.072;2023-05-23T04:06:58;97013.56;;;14.30;42.09
35878;BME280;21982;49.804;24.072;2023-05-23T04:09:25;97024.78;;;14.39;42.07
35878;BME280;21982;49.804;24.072;2023-05-23T04:11:51;97052.06;;;14.59;42.50
35878;BME280;21982;49.804;24.072;2023-05-23T04:14:17;97008.03;;;14.32;42.52
35878;BME280;21982;49.804;24.072;2023-05-23T04:16:44;97038.00;;;14.52;42.69
35878;BME280;21982;49.804;24.072;2023-05-23T04:19:09;96949.31;;;14.02;42.33
35878;BME280;21982;49.804;24.072;2023-05-23T04:21:36;97021.66;;;14.49;42.47
35878;BME280;21982;49.804;24.072;2023-05-23T04:24:02;97038.69;;;14.66;42.54
35878;BME280;21982;49.804;24.072;2023-05-23T04:26:27;96978.28;;;14.35;42.49
35878;BME280;21982;49.804;24.072;2023-05-23T04:28:53;97051.38;;;14.89;42.35
35878;BME280;21982;49.804;24.072;2023-05-23T04:31:24;97042.47;;;14.95;41.88
35878;BME280;21982;49.804;24.072;2023-05-23T04:33:49;96977.59;;;14.64;41.88
35878;BME280;21982;49.804;24.072;2023-05-23T04:36:15;96981.69;;;14.67;42.08
35878;BME280;21982;49.804;24.072;2023-05-23T04:41:07;96916.56;;;14.45;41.69
35878;BME280;21982;49.804;24.072;2023-05-23T04:43:34;97060.69;;;15.53;41.55
35878;BME280;21982;49.804;24.072;2023-05-23T04:46:02;97049.16;;;15.59;41.71
35878;BME280;21982;49.804;24.072;2023-05-23T04:48:27;97065.53;;;15.92;41.15
35878;BME280;21982;49.804;24.072;2023-05-23T04:50:53;97056.97;;;16.14;40.86
35878;BME280;21982;49.804;24.072;2023-05-23T04:53:20;97000.50;;;15.98;40.63
35878;BME280;21982;49.804;24.072;2023-05-23T04:55:46;97032.50;;;16.40;40.66
35878;BME280;21982;49.804;24.072;2023-05-23T04:58:11;97014.25;;;16.49;40.22
35878;BME280;21982;49.804;24.072;2023-05-23T05:00:37;97035.66;;;16.84;40.09
35878;BME280;21982;49.804;24.072;2023-05-23T05:03:02;97052.72;;;17.18;39.93
35878;BME280;21982;49.804;24.072;2023-05-23T05:05:28;97035.59;;;17.30;39.62
35878;BME280;21982;49.804;24.072;2023-05-23T05:07:54;97024.31;;;17.57;39.36
35878;BME280;21982;49.804;24.072;2023-05-23T05:10:20;97040.28;;;18.08;39.01
35878;BME280;21982;49.804;24.072;2023-05-23T05:12:46;96973.47;;;18.19;38.57
35878;BME280;21982;49.804;24.072;2023-05-23T05:15:14;97045.72;;;19.19;38.14
35878;BME280;21982;49.804;24.072;2023-05-23T05:17:41;97038.88;;;19.72;37.38
35878;BME280;21982;49.804;24.072;2023-05-23T05:20:07;97045.13;;;20.36;36.46
35878;BME280;21982;49.804;24.072;2023-05-23T05:22:34;97035.34;;;20.94;36.01
35878;BME280;21982;49.804;24.072;2023-05-23T05:25:00;97050.22;;;21.64;35.23
35878;BME280;21982;49.804;24.072;2023-05-23T05:27:27;97043.63;;;22.23;34.38
35878;BME280;21982;49.804;24.072;2023-05-23T05:29:53;97044.47;;;22.79;33.77
35878;BME280;21982;49.804;24.072;2023-05-23T05:32:21;96970.22;;;22.66;32.85
35878;BME280;21982;49.804;24.072;2023-05-23T05:34:48;96972.66;;;22.83;32.68
35878;BME280;21982;49.804;24.072;2023-05-23T05:37:13;96809.03;;;22.02;32.17
35878;BME280;21982;49.804;24.072;2023-05-23T05:39:39;97035.09;;;23.56;32.16
35878;BME280;21982;49.804;24.072;2023-05-23T05:42:04;97009.59;;;23.67;31.52
35878;BME280;21982;49.804;24.072;2023-05-23T05:44:30;97051.59;;;24.43;31.32
35878;BME280;21982;49.804;24.072;2023-05-23T05:46:56;97044.44;;;25.15;30.53
35878;BME280;21982;49.804;24.072;2023-05-23T05:49:21;96944.59;;;25.27;29.53
35878;BME280;21982;49.804;24.072;2023-05-23T05:51:47;97052.94;;;26.36;28.84
35878;BME280;21982;49.804;24.072;2023-05-23T05:54:12;97043.00;;;26.64;28.00
35878;BME280;21982;49.804;24.072;2023-05-23T05:56:38;97012.19;;;26.69;28.23
35878;BME280;21982;49.804;24.072;2023-05-23T05:59:03;97049.06;;;27.35;27.42
35878;BME280;21982;49.804;24.072;2023-05-23T06:01:28;97047.13;;;27.77;27.02
35878;BME280;21982;49.804;24.072;2023-05-23T06:03:54;97035.56;;;28.07;26.80
35878;BME280;21982;49.804;24.072;2023-05-23T06:06:20;97047.97;;;28.49;26.13
35878;BME280;21982;49.804;24.072;2023-05-23T06:08:46;97038.53;;;28.78;25.87
35878;BME280;21982;49.804;24.072;2023-05-23T06:11:11;96967.47;;;28.65;25.84
35878;BME280;21982;49.804;24.072;2023-05-23T06:13:37;97056.25;;;29.51;25.33
35878;BME280;21982;49.804;24.072;2023-05-23T06:16:02;97034.19;;;29.95;24.92
35878;BME280;21982;49.804;24.072;2023-05-23T06:18:28;97055.13;;;30.78;24.15
35878;BME280;21982;49.804;24.072;2023-05-23T06:20:53;97032.22;;;31.08;23.77
35878;BME280;21982;49.804;24.072;2023-05-23T06:23:18;97043.72;;;31.69;23.24
35878;BME280;21982;49.804;24.072;2023-05-23T06:25:44;97049.19;;;31.98;22.90
35878;BME280;21982;49.804;24.072;2023-05-23T06:28:09;97056.56;;;32.48;22.31
35878;BME280;21982;49.804;24.072;2023-05-23T06:30:34;97026.41;;;32.07;22.17
35878;BME280;21982;49.804;24.072;2023-05-23T06:33:02;96993.00;;;31.63;22.81
35878;BME280;21982;49.804;24.072;2023-05-23T06:35:27;97055.28;;;32.25;22.40
35878;BME280;21982;49.804;24.072;2023-05-23T06:37:53;96998.69;;;32.08;21.99
35878;BME280;21982;49.804;24.072;2023-05-23T06:40:18;97060.63;;;32.96;21.95
35878;BME280;21982;49.804;24.072;2023-05-23T06:42:43;97056.28;;;32.95;21.36
35878;BME280;21982;49.804;24.072;2023-05-23T06:45:09;97057.47;;;33.06;21.36
35878;BME280;21982;49.804;24.072;2023-05-23T06:47:35;97064.94;;;33.18;21.14
35878;BME280;21982;49.804;24.072;2023-05-23T06:50:01;97002.97;;;32.72;21.32
35878;BME280;21982;49.804;24.072;2023-05-23T06:52:26;97063.25;;;33.25;21.32
35878;BME280;21982;49.804;24.072;2023-05-23T06:54:52;97067.69;;;33.18;21.25
35878;BME280;21982;49.804;24.072;2023-05-23T06:57:17;97045.66;;;32.93;21.21
35878;BME280;21982;49.804;24.072;2023-05-23T06:59:42;97059.16;;;33.68;21.38
35878;BME280;21982;49.804;24.072;2023-05-23T07:02:08;97064.16;;;34.15;20.82
35878;BME280;21982;49.804;24.072;2023-05-23T07:04:33;96992.69;;;33.62;20.47
35878;BME280;21982;49.804;24.072;2023-05-23T07:06:59;97066.25;;;34.30;20.62
35878;BME280;21982;49.804;24.072;2023-05-23T07:09:24;97060.44;;;34.47;19.99
35878;BME280;21982;49.804;24.072;2023-05-23T07:11:50;97047.97;;;34.66;19.67
35878;BME280;21982;49.804;24.072;2023-05-23T07:14:15;97032.38;;;34.70;19.74
35878;BME280;21982;49.804;24.072;2023-05-23T07:16:41;97026.16;;;34.85;19.70
35878;BME280;21982;49.804;24.072;2023-05-23T07:19:06;97056.38;;;35.28;19.62
35878;BME280;21982;49.804;24.072;2023-05-23T07:21:31;97055.41;;;35.37;19.78
35878;BME280;21982;49.804;24.072;2023-05-23T07:23:57;97065.72;;;35.40;19.70
35878;BME280;21982;49.804;24.072;2023-05-23T07:26:22;97042.91;;;34.80;19.66
35878;BME280;21982;49.804;24.072;2023-05-23T07:28:48;96999.50;;;34.45;19.58
35878;BME280;21982;49.804;24.072;2023-05-23T07:31:14;97036.00;;;34.58;20.03
35878;BME280;21982;49.804;24.072;2023-05-23T07:33:47;97067.97;;;34.90;19.84
35878;BME280;21982;49.804;24.072;2023-05-23T07:36:12;97061.88;;;35.13;19.21
35878;BME280;21982;49.804;24.072;2023-05-23T07:38:37;97046.22;;;34.85;18.98
35878;BME280;21982;49.804;24.072;2023-05-23T07:41:03;97051.91;;;34.65;19.38
35878;BME280;21982;49.804;24.072;2023-05-23T07:43:28;97037.78;;;34.66;19.03
35878;BME280;21982;49.804;24.072;2023-05-23T07:45:53;97041.59;;;34.61;19.23
35878;BME280;21982;49.804;24.072;2023-05-23T07:48:19;97053.00;;;34.48;19.24
35878;BME280;21982;49.804;24.072;2023-05-23T07:50:44;97047.34;;;34.56;19.63
35878;BME280;21982;49.804;24.072;2023-05-23T07:53:10;96991.69;;;34.19;19.70
35878;BME280;21982;49.804;24.072;2023-05-23T07:55:35;97004.47;;;33.75;20.41
35878;BME280;21982;49.804;24.072;2023-05-23T07:58:00;97045.41;;;34.05;20.57
35878;BME280;21982;49.804;24.072;2023-05-23T08:00:27;97047.25;;;34.01;20.36
35878;BME280;21982;49.804;24.072;2023-05-23T08:02:52;97039.69;;;33.73;20.81
35878;BME280;21982;49.804;24.072;2023-05-23T08:05:17;97004.81;;;33.61;20.33
35878;BME280;21982;49.804;24.072;2023-05-23T08:07:43;97032.16;;;33.34;20.09
35878;BME280;21982;49.804;24.072;2023-05-23T08:10:09;97047.97;;;32.71;20.43
35878;BME280;21982;49.804;24.072;2023-05-23T08:12:35;97027.38;;;32.64;20.93
35878;BME280;21982;49.804;24.072;2023-05-23T08:15:00;97042.22;;;33.29;20.33
35878;BME280;21982;49.804;24.072;2023-05-23T08:17:25;97044.94;;;33.17;20.63
35878;BME280;21982;49.804;24.072;2023-05-23T08:19:51;97016.63;;;32.92;21.16
35878;BME280;21982;49.804;24.072;2023-05-23T08:22:16;96837.53;;;32.55;20.43
35878;BME280;21982;49.804;24.072;2023-05-23T08:24:41;97030.91;;;34.44;19.47
35878;BME280;21982;49.804;24.072;2023-05-23T08:27:07;97030.59;;;34.89;19.77
35878;BME280;21982;49.804;24.072;2023-05-23T08:29:33;97025.56;;;35.07;19.51
35878;BME280;21982;49.804;24.072;2023-05-23T08:32:02;97025.47;;;35.19;19.38
35878;BME280;21982;49.804;24.072;2023-05-23T08:34:31;97029.34;;;35.31;19.10
35878;BME280;21982;49.804;24.072;2023-05-23T08:36:59;97014.13;;;35.52;18.97
35878;BME280;21982;49.804;24.072;2023-05-23T08:39:25;96989.56;;;33.76;19.62
35878;BME280;21982;49.804;24.072;2023-05-23T08:41:51;97015.66;;;32.43;20.38
35878;BME280;21982;49.804;24.072;2023-05-23T08:44:16;97000.22;;;31.00;21.25
35878;BME280;21982;49.804;24.072;2023-05-23T08:46:45;96985.75;;;30.99;21.19
35878;BME280;21982;49.804;24.072;2023-05-23T08:49:12;97007.25;;;32.07;20.88
35878;BME280;21982;49.804;24.072;2023-05-23T08:51:41;97009.25;;;32.18;19.70
35878;BME280;21982;49.804;24.072;2023-05-23T08:54:07;96969.16;;;31.93;19.61
35878;BME280;21982;49.804;24.072;2023-05-23T08:56:35;96963.31;;;32.69;19.06
35878;BME280;21982;49.804;24.072;2023-05-23T08:59:00;96995.09;;;33.40;18.54
35878;BME280;21982;49.804;24.072;2023-05-23T09:01:26;96984.72;;;32.76;19.09
35878;BME280;21982;49.804;24.072;2023-05-23T09:03:54;96991.59;;;31.27;20.03
35878;BME280;21982;49.804;24.072;2023-05-23T09:06:24;96937.06;;;31.22;19.88
35878;BME280;21982;49.804;24.072;2023-05-23T09:08:50;96996.00;;;32.41;19.65
35878;BME280;21982;49.804;24.072;2023-05-23T09:11:16;96978.00;;;32.52;19.01
35878;BME280;21982;49.804;24.072;2023-05-23T09:13:41;96979.22;;;32.43;18.78
35878;BME280;21982;49.804;24.072;2023-05-23T09:16:08;96943.91;;;32.74;18.45
35878;BME280;21982;49.804;24.072;2023-05-23T09:18:42;96965.59;;;33.24;18.28
35878;BME280;21982;49.804;24.072;2023-05-23T09:21:08;96995.63;;;33.09;18.87
35878;BME280;21982;49.804;24.072;2023-05-23T09:23:35;96961.94;;;33.20;18.45
35878;BME280;21982;49.804;24.072;2023-05-23T09:26:05;96993.25;;;33.19;17.91
35878;BME280;21982;49.804;24.072;2023-05-23T09:28:35;96898.56;;;33.01;17.94
35878;BME280;21982;49.804;24.072;2023-05-23T09:31:05;96990.66;;;34.12;17.73
35878;BME280;21982;49.804;24.072;2023-05-23T09:33:48;97005.13;;;35.08;17.21
35878;BME280;21982;49.804;24.072;2023-05-23T09:36:17;96987.47;;;34.93;17.25
35878;BME280;21982;49.804;24.072;2023-05-23T09:38:44;96999.09;;;35.18;16.80
35878;BME280;21982;49.804;24.072;2023-05-23T09:41:10;96984.19;;;35.35;16.80
35878;BME280;21982;49.804;24.072;2023-05-23T09:43:51;96996.81;;;35.52;16.66
35878;BME280;21982;49.804;24.072;2023-05-23T09:46:19;96956.66;;;35.51;16.60
35878;BME280;21982;49.804;24.072;2023-05-23T09:48:54;97000.75;;;36.05;16.57
35878;BME280;21982;49.804;24.072;2023-05-23T09:51:22;96969.94;;;35.80;16.48
35878;BME280;21982;49.804;24.072;2023-05-23T09:53:50;96942.22;;;34.47;17.06
35878;BME280;21982;49.804;24.072;2023-05-23T09:56:16;96934.47;;;33.45;18.12
35878;BME280;21982;49.804;24.072;2023-05-23T09:58:49;96988.19;;;34.63;17.35
35878;BME280;21982;49.804;24.072;2023-05-23T10:01:15;96973.72;;;35.41;17.32
35878;BME280;21982;49.804;24.072;2023-05-23T10:06:24;96941.59;;;34.54;16.87
35878;BME280;21982;49.804;24.072;2023-05-23T10:09:06;96938.53;;;33.75;17.63
35878;BME280;21982;49.804;24.072;2023-05-23T10:14:05;96934.38;;;34.34;17.56
35878;BME280;21982;49.804;24.072;2023-05-23T10:22:06;96931.53;;;35.05;16.89
35878;BME280;21982;49.804;24.072;2023-05-23T10:24:33;96966.34;;;35.13;16.98
35878;BME280;21982;49.804;24.072;2023-05-23T10:27:00;96943.22;;;34.71;17.02
35878;BME280;21982;49.804;24.072;2023-05-23T10:29:27;96964.94;;;34.88;17.07
35878;BME280;21982;49.804;24.072;2023-05-23T10:31:54;96962.31;;;34.64;17.27
35878;BME280;21982;49.804;24.072;2023-05-23T10:34:28;96940.34;;;34.79;17.03
35878;BME280;21982;49.804;24.072;2023-05-23T10:37:02;96928.72;;;33.86;17.38
35878;BME280;21982;49.804;24.072;2023-05-23T10:39:58;96957.09;;;32.93;17.72
35878;BME280;21982;49.804;24.072;2023-05-23T10:45:18;96950.97;;;33.45;17.30
35878;BME280;21982;49.804;24.072;2023-05-23T10:47:49;96920.53;;;33.38;17.89
35878;BME280;21982;49.804;24.072;2023-05-23T10:50:35;96908.06;;;33.52;18.16
35878;BME280;21982;49.804;24.072;2023-05-23T10:53:04;96854.22;;;33.36;17.76
35878;BME280;21982;49.804;24.072;2023-05-23T10:55:32;96942.31;;;34.23;17.29
35878;BME280;21982;49.804;24.072;2023-05-23T10:58:09;96921.13;;;34.23;17.37
35878;BME280;21982;49.804;24.072;2023-05-23T11:00:36;96929.16;;;34.16;17.22
35878;BME280;21982;49.804;24.072;2023-05-23T11:03:04;96940.84;;;33.85;17.32
35878;BME280;21982;49.804;24.072;2023-05-23T11:05:33;96905.91;;;33.09;17.29
35878;BME280;21982;49.804;24.072;2023-05-23T11:08:12;96937.91;;;33.29;17.33
35878;BME280;21982;49.804;24.072;2023-05-23T11:11:13;96927.66;;;33.91;17.43
35878;BME280;21982;49.804;24.072;2023-05-23T11:13:56;96913.31;;;34.53;17.27
35878;BME280;21982;49.804;24.072;2023-05-23T11:16:46;96930.06;;;34.92;17.03
35878;BME280;21982;49.804;24.072;2023-05-23T11:21:59;96917.50;;;32.70;18.23
35878;BME280;21982;49.804;24.072;2023-05-23T11:27:35;96917.31;;;33.48;17.77
35878;BME280;21982;49.804;24.072;2023-05-23T11:30:08;96918.19;;;34.16;17.28
35878;BME280;21982;49.804;24.072;2023-05-23T11:32:34;96900.78;;;34.40;17.06
35878;BME280;21982;49.804;24.072;2023-05-23T11:35:04;96917.97;;;34.97;16.75
35878;BME280;21982;49.804;24.072;2023-05-23T11:37:30;96890.75;;;34.32;16.85
35878;BME280;21982;49.804;24.072;2023-05-23T11:39:56;96913.72;;;33.84;17.05
35878;BME280;21982;49.804;24.072;2023-05-23T11:44:59;96912.72;;;34.32;16.44
35878;BME280;21982;49.804;24.072;2023-05-23T11:47:24;96899.59;;;34.85;16.24
35878;BME280;21982;49.804;24.072;2023-05-23T11:49:50;96904.19;;;35.28;16.25
35878;BME280;21982;49.804;24.072;2023-05-23T11:52:15;96898.41;;;34.70;16.12
35878;BME280;21982;49.804;24.072;2023-05-23T11:54:41;96903.81;;;34.51;16.98
35878;BME280;21982;49.804;24.072;2023-05-23T11:57:08;96891.13;;;35.09;16.53
35878;BME280;21982;49.804;24.072;2023-05-23T11:59:33;96878.47;;;35.55;16.15
35878;BME280;21982;49.804;24.072;2023-05-23T12:02:01;96888.72;;;35.93;15.53
35878;BME280;21982;49.804;24.072;2023-05-23T12:04:26;96860.50;;;35.62;15.51
35878;BME280;21982;49.804;24.072;2023-05-23T12:06:52;96852.94;;;35.58;15.86
35878;BME280;21982;49.804;24.072;2023-05-23T12:09:17;96721.94;;;34.84;15.91
35878;BME280;21982;49.804;24.072;2023-05-23T12:11:48;96881.34;;;35.27;15.61
35878;BME280;21982;49.804;24.072;2023-05-23T12:14:17;96855.13;;;34.51;16.55
35878;BME280;21982;49.804;24.072;2023-05-23T12:16:43;96884.03;;;34.30;16.65
35878;BME280;21982;49.804;24.072;2023-05-23T12:19:13;96838.50;;;33.88;17.21
35878;BME280;21982;49.804;24.072;2023-05-23T12:21:47;96837.97;;;33.71;17.10
35878;BME280;21982;49.804;24.072;2023-05-23T12:26:51;96861.50;;;34.12;16.97
35878;BME280;21982;49.804;24.072;2023-05-23T12:29:33;96870.72;;;34.47;16.55
35878;BME280;21982;49.804;24.072;2023-05-23T12:32:00;96817.72;;;34.03;16.83
35878;BME280;21982;49.804;24.072;2023-05-23T12:34:26;96857.13;;;34.23;16.75
35878;BME280;21982;49.804;24.072;2023-05-23T12:36:57;96858.03;;;33.99;16.72
35878;BME280;21982;49.804;24.072;2023-05-23T12:39:27;96798.50;;;32.83;17.71
35878;BME280;21982;49.804;24.072;2023-05-23T12:41:53;96804.09;;;32.05;18.46
35878;BME280;21982;49.804;24.072;2023-05-23T12:44:23;96791.44;;;31.46;18.38
35878;BME280;21982;49.804;24.072;2023-05-23T12:46:48;96787.31;;;30.90;18.44
35878;BME280;21982;49.804;24.072;2023-05-23T12:49:14;96796.75;;;30.33;19.21
35878;BME280;21982;49.804;24.072;2023-05-23T12:51:39;96831.47;;;30.33;19.48
35878;BME280;21982;49.804;24.072;2023-05-23T12:54:05;96752.28;;;29.69;19.86
35878;BME280;21982;49.804;24.072;2023-05-23T12:56:32;96837.47;;;29.92;20.26
35878;BME280;21982;49.804;24.072;2023-05-23T12:58:58;96830.44;;;29.48;20.41
35878;BME280;21982;49.804;24.072;2023-05-23T13:01:23;96846.00;;;29.39;21.08
35878;BME280;21982;49.804;24.072;2023-05-23T13:03:48;96805.06;;;28.95;21.09
35878;BME280;21982;49.804;24.072;2023-05-23T13:06:14;96792.47;;;28.68;21.14
35878;BME280;21982;49.804;24.072;2023-05-23T13:08:39;96776.66;;;28.88;21.04
35878;BME280;21982;49.804;24.072;2023-05-23T13:11:05;96825.94;;;29.26;21.39
35878;BME280;21982;49.804;24.072;2023-05-23T13:13:31;96781.19;;;29.01;21.66
35878;BME280;21982;49.804;24.072;2023-05-23T13:15:59;96818.16;;;28.85;21.34
35878;BME280;21982;49.804;24.072;2023-05-23T13:18:25;96819.50;;;28.56;21.66
35878;BME280;21982;49.804;24.072;2023-05-23T13:20:50;96777.75;;;27.99;22.31
35878;BME280;21982;49.804;24.072;2023-05-23T13:23:15;96715.78;;;27.43;21.97
35878;BME280;21982;49.804;24.072;2023-05-23T13:25:41;96762.88;;;27.52;22.25
35878;BME280;21982;49.804;24.072;2023-05-23T13:28:06;96784.75;;;27.24;22.98